createdAt,value
2019-04-07T00:00:52.359Z,56.10
2019-04-07T00:01:52.655Z,55.30
2019-04-07T00:02:52.343Z,54.00
2019-04-07T00:03:53.195Z,52.00
2019-04-07T00:04:52.335Z,57.30
2019-04-07T00:05:52.343Z,56.30
2019-04-07T00:06:52.316Z,55.60
2019-04-07T00:07:52.312Z,58.90
2019-04-07T00:08:52.306Z,60.20
2019-04-07T00:09:52.576Z,61.40
2019-04-07T00:10:52.743Z,57.50
2019-04-07T00:11:52.283Z,52.80
2019-04-07T00:12:52.280Z,53.50
2019-04-07T00:13:52.269Z,55.80
2019-04-07T00:14:52.260Z,54.40
2019-04-07T00:15:52.254Z,48.90
2019-04-07T00:16:52.246Z,52.80
2019-04-07T00:17:52.240Z,51.00
2019-04-07T00:18:52.233Z,53.90
2019-04-07T00:19:52.228Z,55.80
2019-04-07T00:20:52.867Z,54.30
2019-04-07T00:21:52.218Z,53.40
2019-04-07T00:22:52.332Z,52.50
2019-04-07T00:23:52.203Z,57.00
2019-04-07T00:24:52.201Z,57.90
2019-04-07T00:25:52.193Z,51.00
2019-04-07T00:26:52.448Z,54.50
2019-04-07T00:27:52.175Z,56.20
2019-04-07T00:28:52.166Z,60.00
2019-04-07T00:29:52.159Z,56.60
2019-04-07T00:30:52.157Z,48.80
2019-04-07T00:31:52.314Z,51.50
2019-04-07T00:32:52.145Z,48.60
2019-04-07T00:33:52.138Z,48.20
2019-04-07T00:34:52.126Z,51.10
2019-04-07T00:35:52.121Z,53.30
2019-04-07T00:36:52.225Z,51.50
2019-04-07T00:37:52.110Z,50.80
2019-04-07T00:38:52.106Z,51.30
2019-04-07T00:39:52.100Z,52.90
2019-04-07T00:40:52.499Z,53.20
2019-04-07T00:41:52.081Z,60.50
2019-04-07T00:42:52.080Z,55.80
2019-04-07T00:43:52.075Z,55.40
2019-04-07T00:44:52.064Z,53.30
2019-04-07T00:45:52.488Z,56.10
2019-04-07T00:46:52.590Z,55.10
2019-04-07T00:47:52.565Z,55.20
2019-04-07T00:48:52.037Z,57.70
2019-04-07T00:49:52.193Z,53.90
2019-04-07T00:50:52.032Z,57.60
2019-04-07T00:51:52.021Z,57.00
2019-04-07T00:52:52.520Z,56.60
2019-04-07T00:53:52.006Z,53.20
2019-04-07T00:54:52.264Z,56.40
2019-04-07T00:55:51.996Z,56.60
2019-04-07T00:56:51.986Z,55.80
2019-04-07T00:57:51.989Z,56.00
2019-04-07T00:58:52.414Z,55.40
2019-04-07T00:59:51.965Z,53.50
2019-04-07T01:00:52.141Z,57.10
2019-04-07T01:01:52.560Z,56.80
2019-04-07T01:02:51.948Z,58.20
2019-04-07T01:03:51.940Z,60.60
2019-04-07T01:04:51.933Z,56.30
2019-04-07T01:05:52.181Z,55.10
2019-04-07T01:06:51.915Z,53.20
2019-04-07T01:07:51.911Z,55.50
2019-04-07T01:08:52.464Z,57.80
2019-04-07T01:09:51.897Z,56.40
2019-04-07T01:10:52.492Z,51.50
2019-04-07T01:11:52.399Z,54.40
2019-04-07T01:12:52.206Z,54.50
2019-04-07T01:13:51.867Z,55.10
2019-04-07T01:14:52.166Z,50.30
2019-04-07T01:15:51.857Z,54.80
2019-04-07T01:16:51.853Z,61.90
2019-04-07T01:17:52.377Z,57.20
2019-04-07T01:18:52.007Z,55.90
2019-04-07T01:19:51.961Z,52.20
2019-04-07T01:20:51.907Z,51.80
2019-04-07T01:21:51.816Z,55.90
2019-04-07T01:22:51.813Z,50.40
2019-04-07T01:23:51.805Z,56.00
2019-04-07T01:24:51.842Z,58.00
2019-04-07T01:25:52.270Z,49.80
2019-04-07T01:26:51.778Z,53.30
2019-04-07T01:27:51.771Z,50.10
2019-04-07T01:28:54.295Z,53.40
2019-04-07T01:29:51.761Z,48.60
2019-04-07T01:30:51.753Z,48.80
2019-04-07T01:31:51.820Z,53.30
2019-04-07T01:32:52.169Z,54.20
2019-04-07T01:33:52.176Z,52.90
2019-04-07T01:34:51.732Z,52.90
2019-04-07T01:35:51.725Z,54.50
2019-04-07T01:36:51.748Z,57.30
2019-04-07T01:37:51.820Z,50.80
2019-04-07T01:38:52.138Z,51.00
2019-04-07T01:39:51.694Z,52.00
2019-04-07T01:40:51.952Z,53.50
2019-04-07T01:41:51.681Z,52.50
2019-04-07T01:42:52.168Z,51.50
2019-04-07T01:43:51.671Z,53.30
2019-04-07T01:44:51.877Z,50.90
2019-04-07T01:45:51.651Z,51.60
2019-04-07T01:46:52.292Z,50.60
2019-04-07T01:47:52.323Z,53.30
2019-04-07T01:48:52.077Z,55.70
2019-04-07T01:49:52.328Z,51.00
2019-04-07T01:50:51.819Z,47.80
2019-04-07T01:51:51.844Z,51.50
2019-04-07T01:52:51.917Z,50.30
2019-04-07T01:53:51.971Z,52.90
2019-04-07T01:54:51.599Z,50.60
2019-04-07T01:55:52.114Z,49.40
2019-04-07T01:56:51.646Z,49.30
2019-04-07T01:57:51.877Z,45.90
2019-04-07T01:58:51.563Z,47.70
2019-04-07T01:59:51.956Z,51.70
2019-04-07T02:00:52.127Z,52.70
2019-04-07T02:01:51.757Z,51.00
2019-04-07T02:02:52.052Z,50.30
2019-04-07T02:03:51.532Z,47.50
2019-04-07T02:04:52.129Z,47.60
2019-04-07T02:05:58.701Z,49.90
2019-04-07T02:06:51.737Z,49.40
2019-04-07T02:07:51.511Z,52.60
2019-04-07T02:08:51.747Z,49.30
2019-04-07T02:09:52.083Z,53.40
2019-04-07T02:10:51.611Z,51.50
2019-04-07T02:11:51.482Z,46.40
2019-04-07T02:12:52.012Z,45.50
2019-04-07T02:13:51.658Z,51.50
2019-04-07T02:14:52.146Z,51.50
2019-04-07T02:15:51.455Z,50.00
2019-04-07T02:16:51.563Z,51.00
2019-04-07T02:17:51.553Z,47.70
2019-04-07T02:18:51.438Z,49.40
2019-04-07T02:19:51.427Z,44.00
2019-04-07T02:20:51.610Z,49.80
2019-04-07T02:21:51.545Z,45.50
2019-04-07T02:22:52.046Z,44.30
2019-04-07T02:23:51.399Z,41.80
2019-04-07T02:24:51.539Z,43.90
2019-04-07T02:25:51.536Z,44.50
2019-04-07T02:26:51.382Z,45.10
2019-04-07T02:27:51.376Z,41.90
2019-04-07T02:28:51.366Z,46.50
2019-04-07T02:29:51.360Z,43.80
2019-04-07T02:30:52.260Z,46.20
2019-04-07T02:31:52.231Z,45.90
2019-04-07T02:32:52.379Z,43.60
2019-04-07T02:33:52.334Z,41.50
2019-04-07T02:34:51.323Z,46.90
2019-04-07T02:35:52.397Z,46.80
2019-04-07T02:36:51.311Z,45.20
2019-04-07T02:37:51.306Z,48.20
2019-04-07T02:38:51.821Z,42.70
2019-04-07T02:39:51.295Z,46.70
2019-04-07T02:40:51.477Z,47.20
2019-04-07T02:41:51.741Z,47.10
2019-04-07T02:42:51.652Z,45.90
2019-04-07T02:43:51.308Z,45.50
2019-04-07T02:44:51.252Z,43.10
2019-04-07T02:45:51.246Z,45.80
2019-04-07T02:46:51.629Z,44.50
2019-04-07T02:47:51.336Z,42.50
2019-04-07T02:48:51.343Z,42.10
2019-04-07T02:49:51.797Z,42.80
2019-04-07T02:50:51.217Z,42.60
2019-04-07T02:51:51.212Z,45.40
2019-04-07T02:52:51.450Z,46.40
2019-04-07T02:53:51.198Z,44.40
2019-04-07T02:54:51.503Z,40.90
2019-04-07T02:55:51.183Z,43.00
2019-04-07T02:56:52.208Z,41.70
2019-04-07T02:57:51.162Z,45.90
2019-04-07T02:58:51.447Z,42.50
2019-04-07T02:59:51.465Z,41.50
2019-04-07T03:00:52.145Z,41.60
2019-04-07T03:01:51.992Z,41.90
2019-04-07T03:02:51.929Z,46.00
2019-04-07T03:03:51.135Z,45.80
2019-04-07T03:04:51.298Z,44.40
2019-04-07T03:05:51.141Z,42.60
2019-04-07T03:06:53.404Z,45.00
2019-04-07T03:07:51.096Z,40.90
2019-04-07T03:08:51.086Z,42.80
2019-04-07T03:09:51.686Z,41.90
2019-04-07T03:10:51.425Z,41.20
2019-04-07T03:11:51.073Z,45.50
2019-04-07T03:12:51.281Z,43.20
2019-04-07T03:13:52.083Z,41.60
2019-04-07T03:14:52.932Z,44.50
2019-04-07T03:15:51.040Z,43.60
2019-04-07T03:16:51.547Z,42.00
2019-04-07T03:17:51.970Z,42.90
2019-04-07T03:18:51.021Z,43.90
2019-04-07T03:19:52.039Z,40.40
2019-04-07T03:20:51.520Z,40.20
2019-04-07T03:21:50.997Z,44.40
2019-04-07T03:22:50.992Z,41.70
2019-04-07T03:23:51.427Z,43.00
2019-04-07T03:24:51.666Z,46.00
2019-04-07T03:25:51.023Z,42.20
2019-04-07T03:26:51.420Z,43.80
2019-04-07T03:27:51.545Z,41.20
2019-04-07T03:28:51.417Z,44.50
2019-04-07T03:29:50.931Z,42.20
2019-04-07T03:30:51.928Z,42.90
2019-04-07T03:31:51.553Z,42.40
2019-04-07T03:32:53.436Z,40.70
2019-04-07T03:33:52.206Z,43.40
2019-04-07T03:34:52.123Z,41.50
2019-04-07T03:35:53.333Z,41.60
2019-04-07T03:37:14.949Z,41.60
2019-04-07T03:37:51.522Z,41.70
2019-04-07T03:38:50.872Z,41.20
2019-04-07T03:39:51.267Z,40.60
2019-04-07T03:40:51.585Z,40.60
2019-04-07T03:41:52.029Z,41.50
2019-04-07T03:42:51.157Z,39.50
2019-04-07T03:43:51.014Z,42.70
2019-04-07T03:44:51.078Z,41.30
2019-04-07T03:45:51.876Z,42.30
2019-04-07T03:46:50.896Z,41.50
2019-04-07T03:47:50.800Z,40.30
2019-04-07T03:48:50.908Z,40.00
2019-04-07T03:49:51.004Z,42.20
2019-04-07T03:50:50.929Z,39.60
2019-04-07T03:51:51.508Z,38.90
2019-04-07T03:52:51.128Z,42.80
2019-04-07T03:53:51.958Z,39.60
2019-04-07T03:54:50.907Z,43.40
2019-04-07T03:55:51.312Z,42.20
2019-04-07T03:56:51.701Z,40.00
2019-04-07T03:57:50.773Z,44.40
2019-04-07T03:58:50.831Z,39.80
2019-04-07T03:59:51.360Z,42.80
2019-04-07T04:00:50.705Z,39.80
2019-04-07T04:01:51.652Z,41.60
2019-04-07T04:02:50.695Z,44.50
2019-04-07T04:03:51.420Z,44.10
2019-04-07T04:04:51.480Z,44.40
2019-04-07T04:05:52.505Z,44.60
2019-04-07T04:06:51.503Z,44.80
2019-04-07T04:07:50.662Z,43.20
2019-04-07T04:08:50.967Z,40.90
2019-04-07T04:09:51.624Z,39.50
2019-04-07T04:10:51.637Z,42.40
2019-04-07T04:11:51.550Z,44.20
2019-04-07T04:12:51.236Z,43.80
2019-04-07T04:13:51.005Z,38.70
2019-04-07T04:14:50.874Z,39.90
2019-04-07T04:15:51.567Z,40.80
2019-04-07T04:16:50.969Z,40.40
2019-04-07T04:17:51.288Z,40.90
2019-04-07T04:18:50.566Z,40.60
2019-04-07T04:19:50.976Z,40.80
2019-04-07T04:20:50.546Z,41.30
2019-04-07T04:21:51.178Z,39.60
2019-04-07T04:22:50.723Z,41.00
2019-04-07T04:23:50.533Z,40.90
2019-04-07T04:24:50.548Z,40.60
2019-04-07T04:25:50.506Z,40.00
2019-04-07T04:26:51.748Z,40.60
2019-04-07T04:27:50.873Z,39.80
2019-04-07T04:28:50.751Z,40.90
2019-04-07T04:29:51.898Z,40.20
2019-04-07T04:30:50.783Z,41.50
2019-04-07T04:31:50.688Z,44.10
2019-04-07T04:32:50.456Z,42.80
2019-04-07T04:33:51.666Z,41.50
2019-04-07T04:34:50.487Z,40.30
2019-04-07T04:35:50.445Z,41.10
2019-04-07T04:36:50.431Z,40.10
2019-04-07T04:37:53.395Z,39.90
2019-04-07T04:38:52.378Z,39.30
2019-04-07T04:39:51.167Z,41.70
2019-04-07T04:40:50.665Z,40.70
2019-04-07T04:41:50.871Z,42.30
2019-04-07T04:42:50.591Z,43.10
2019-04-07T04:43:50.436Z,41.30
2019-04-07T04:44:50.996Z,40.90
2019-04-07T04:45:50.574Z,41.00
2019-04-07T04:46:50.346Z,41.60
2019-04-07T04:47:50.339Z,38.50
2019-04-07T04:48:51.162Z,39.40
2019-04-07T04:49:50.386Z,43.70
2019-04-07T04:50:50.469Z,40.90
2019-04-07T04:51:50.313Z,40.20
2019-04-07T04:52:50.294Z,37.10
2019-04-07T04:53:50.467Z,39.70
2019-04-07T04:54:50.283Z,40.10
2019-04-07T04:55:50.272Z,38.50
2019-04-07T04:56:50.416Z,41.60
2019-04-07T04:57:51.165Z,43.50
2019-04-07T04:58:50.713Z,41.30
2019-04-07T04:59:50.699Z,45.40
2019-04-07T05:00:50.729Z,41.50
2019-04-07T05:01:51.086Z,44.70
2019-04-07T05:02:50.214Z,41.90
2019-04-07T05:03:50.693Z,44.50
2019-04-07T05:04:50.195Z,44.20
2019-04-07T05:05:50.186Z,42.60
2019-04-07T05:06:50.183Z,39.50
2019-04-07T05:07:58.940Z,41.50
2019-04-07T05:08:51.081Z,42.30
2019-04-07T05:09:53.843Z,36.50
2019-04-07T05:10:50.307Z,37.80
2019-04-07T05:11:50.592Z,37.90
2019-04-07T05:12:50.380Z,37.00
2019-04-07T05:13:50.191Z,39.20
2019-04-07T05:14:50.335Z,40.30
2019-04-07T05:15:50.223Z,37.80
2019-04-07T05:16:50.404Z,41.60
2019-04-07T05:17:50.379Z,42.30
2019-04-07T05:18:50.085Z,37.30
2019-04-07T05:19:50.074Z,42.60
2019-04-07T05:20:50.066Z,40.40
2019-04-07T05:21:50.463Z,42.30
2019-04-07T05:22:50.050Z,36.90
2019-04-07T05:23:50.181Z,40.40
2019-04-07T05:24:50.508Z,37.50
2019-04-07T05:25:50.434Z,40.50
2019-04-07T05:26:50.021Z,38.60
2019-04-07T05:27:50.380Z,40.50
2019-04-07T05:28:50.472Z,39.90
2019-04-07T05:29:49.992Z,35.90
2019-04-07T05:30:50.154Z,36.50
2019-04-07T05:31:50.326Z,38.20
2019-04-07T05:32:49.973Z,34.50
2019-04-07T05:33:49.968Z,35.80
2019-04-07T05:34:50.540Z,33.50
2019-04-07T05:35:50.434Z,34.30
2019-04-07T05:36:49.936Z,34.70
2019-04-07T05:37:59.903Z,34.30
2019-04-07T05:38:49.989Z,33.90
2019-04-07T05:39:49.946Z,35.00
2019-04-07T05:40:50.084Z,33.00
2019-04-07T05:41:49.905Z,30.10
2019-04-07T05:42:49.895Z,33.10
2019-04-07T05:43:50.286Z,31.90
2019-04-07T05:44:50.493Z,31.50
2019-04-07T05:45:50.045Z,32.30
2019-04-07T05:46:49.949Z,31.30
2019-04-07T05:47:50.778Z,26.80
2019-04-07T05:48:51.140Z,26.70
2019-04-07T05:49:49.967Z,29.20
2019-04-07T05:50:50.465Z,27.40
2019-04-07T05:51:50.107Z,29.70
2019-04-07T05:52:49.994Z,28.00
2019-04-07T05:53:49.867Z,29.00
2019-04-07T05:54:51.408Z,27.10
2019-04-07T05:55:52.111Z,29.30
2019-04-07T05:56:50.249Z,28.00
2019-04-07T05:57:49.804Z,26.80
2019-04-07T05:58:49.999Z,28.40
2019-04-07T05:59:50.383Z,26.20
2019-04-07T06:00:50.208Z,26.50
2019-04-07T06:01:51.595Z,24.80
2019-04-07T06:02:50.689Z,28.20
2019-04-07T06:03:49.782Z,24.30
2019-04-07T06:04:49.779Z,26.20
2019-04-07T06:05:51.079Z,28.20
2019-04-07T06:06:52.844Z,27.70
2019-04-07T06:07:50.466Z,25.60
2019-04-07T06:08:49.784Z,24.60
2019-04-07T06:09:51.233Z,27.30
2019-04-07T06:10:50.065Z,24.10
2019-04-07T06:11:49.860Z,24.20
2019-04-07T06:12:49.751Z,23.80
2019-04-07T06:13:50.415Z,24.80
2019-04-07T06:14:49.856Z,24.70
2019-04-07T06:15:51.374Z,24.30
2019-04-07T06:16:53.569Z,26.20
2019-04-07T06:17:50.090Z,25.00
2019-04-07T06:18:50.132Z,24.40
2019-04-07T06:19:51.620Z,27.30
2019-04-07T06:20:50.484Z,25.70
2019-04-07T06:21:49.943Z,29.20
2019-04-07T06:22:52.833Z,23.50
2019-04-07T06:23:49.727Z,26.50
2019-04-07T06:24:50.238Z,26.30
2019-04-07T06:25:50.107Z,24.80
2019-04-07T06:26:50.371Z,25.80
2019-04-07T06:27:50.099Z,26.70
2019-04-07T06:28:54.067Z,25.10
2019-04-07T06:29:50.114Z,25.80
2019-04-07T06:30:49.725Z,26.90
2019-04-07T06:31:49.843Z,25.00
2019-04-07T06:32:50.510Z,24.60
2019-04-07T06:33:49.912Z,23.90
2019-04-07T06:34:50.622Z,23.50
2019-04-07T06:35:49.941Z,24.50
2019-04-07T06:36:53.624Z,24.00
2019-04-07T06:37:49.724Z,26.10
2019-04-07T06:38:52.350Z,23.60
2019-04-07T06:39:51.568Z,24.70
2019-04-07T06:40:52.769Z,23.90
2019-04-07T06:41:49.723Z,23.60
2019-04-07T06:42:49.929Z,23.50
2019-04-07T06:43:49.762Z,25.40
2019-04-07T06:44:51.081Z,23.90
2019-04-07T06:45:52.789Z,26.30
2019-04-07T06:46:49.725Z,24.00
2019-04-07T06:47:49.826Z,24.20
2019-04-07T06:48:50.467Z,24.20
2019-04-07T06:49:49.731Z,28.00
2019-04-07T06:50:56.661Z,23.70
2019-04-07T06:51:50.096Z,24.10
2019-04-07T06:52:49.737Z,24.80
2019-04-07T06:53:50.447Z,24.60
2019-04-07T06:54:53.487Z,24.20
2019-04-07T06:55:49.749Z,24.40
2019-04-07T06:56:50.006Z,26.80
2019-04-07T06:57:49.752Z,25.10
2019-04-07T06:58:50.414Z,23.80
2019-04-07T06:59:50.161Z,24.60
2019-04-07T07:00:53.592Z,23.70
2019-04-07T07:01:50.224Z,23.40
2019-04-07T07:02:49.977Z,26.80
2019-04-07T07:03:49.771Z,24.40
2019-04-07T07:04:49.801Z,24.00
2019-04-07T07:05:50.374Z,24.70
2019-04-07T07:06:50.248Z,24.00
2019-04-07T07:07:49.894Z,24.40
2019-04-07T07:08:52.888Z,23.40
2019-04-07T07:09:50.244Z,24.30
2019-04-07T07:10:50.794Z,24.30
2019-04-07T07:11:49.801Z,22.60
2019-04-07T07:12:49.805Z,23.60
2019-04-07T07:13:49.964Z,23.70
2019-04-07T07:14:49.820Z,24.40
2019-04-07T07:15:49.847Z,23.70
2019-04-07T07:16:49.994Z,23.50
2019-04-07T07:17:51.060Z,24.20
2019-04-07T07:18:51.762Z,24.20
2019-04-07T07:19:49.901Z,23.70
2019-04-07T07:20:50.516Z,24.40
2019-04-07T07:21:50.141Z,25.00
2019-04-07T07:22:50.707Z,24.30
2019-04-07T07:23:50.062Z,26.80
2019-04-07T07:24:50.302Z,26.60
2019-04-07T07:25:50.634Z,25.50
2019-04-07T07:26:50.377Z,26.80
2019-04-07T07:27:49.878Z,26.90
2019-04-07T07:28:49.884Z,25.20
2019-04-07T07:29:52.827Z,24.70
2019-04-07T07:30:52.477Z,26.50
2019-04-07T07:31:52.235Z,25.00
2019-04-07T07:32:50.581Z,24.40
2019-04-07T07:33:49.965Z,25.10
2019-04-07T07:34:49.915Z,24.10
2019-04-07T07:35:50.623Z,24.40
2019-04-07T07:36:53.444Z,25.20
2019-04-07T07:37:50.026Z,24.60
2019-04-07T07:38:59.064Z,25.60
2019-04-07T07:39:50.770Z,25.80
2019-04-07T07:40:50.142Z,24.20
2019-04-07T07:41:51.723Z,26.30
2019-04-07T07:42:51.014Z,26.70
2019-04-07T07:43:49.958Z,26.70
2019-04-07T07:44:50.375Z,24.80
2019-04-07T07:45:50.160Z,26.40
2019-04-07T07:46:51.522Z,27.60
2019-04-07T07:47:53.774Z,26.10
2019-04-07T07:48:50.091Z,27.20
2019-04-07T07:49:50.836Z,27.40
2019-04-07T07:50:50.167Z,27.10
2019-04-07T07:51:50.577Z,27.90
2019-04-07T07:52:53.199Z,25.80
2019-04-07T07:53:50.528Z,25.80
2019-04-07T07:54:50.798Z,26.50
2019-04-07T07:55:50.037Z,25.60
2019-04-07T07:56:51.205Z,25.10
2019-04-07T07:57:54.158Z,26.40
2019-04-07T07:58:50.476Z,26.00
2019-04-07T07:59:50.878Z,25.60
2019-04-07T08:00:50.635Z,25.80
2019-04-07T08:01:51.398Z,25.30
2019-04-07T08:02:52.473Z,26.00
2019-04-07T08:03:53.049Z,25.80
2019-04-07T08:04:50.102Z,25.20
2019-04-07T08:05:50.108Z,25.10
2019-04-07T08:06:50.224Z,25.20
2019-04-07T08:07:51.043Z,25.40
2019-04-07T08:08:50.145Z,24.80
2019-04-07T08:09:53.897Z,25.80
2019-04-07T08:10:50.755Z,24.90
2019-04-07T08:11:50.252Z,24.70
2019-04-07T08:12:50.868Z,25.00
2019-04-07T08:13:50.296Z,25.80
2019-04-07T08:14:53.981Z,25.20
2019-04-07T08:15:50.387Z,24.70
2019-04-07T08:16:50.201Z,24.40
2019-04-07T08:17:50.862Z,24.30
2019-04-07T08:18:50.989Z,23.80
2019-04-07T08:19:50.296Z,24.00
2019-04-07T08:20:50.238Z,24.20
2019-04-07T08:21:51.846Z,24.30
2019-04-07T08:22:50.445Z,23.20
2019-04-07T08:23:50.269Z,24.30
2019-04-07T08:24:51.895Z,23.00
2019-04-07T08:25:52.920Z,23.50
2019-04-07T08:26:50.382Z,23.60
2019-04-07T08:27:50.297Z,24.50
2019-04-07T08:28:50.325Z,23.30
2019-04-07T08:29:51.022Z,22.90
2019-04-07T08:30:51.137Z,23.00
2019-04-07T08:31:52.632Z,23.70
2019-04-07T08:32:50.386Z,23.00
2019-04-07T08:33:51.596Z,23.80
2019-04-07T08:34:50.554Z,22.40
2019-04-07T08:35:51.100Z,22.80
2019-04-07T08:36:50.385Z,22.40
2019-04-07T08:37:50.524Z,22.00
2019-04-07T08:38:53.956Z,22.30
2019-04-07T08:39:50.815Z,21.10
2019-04-07T08:40:52.896Z,21.00
2019-04-07T08:41:50.707Z,20.80
2019-04-07T08:42:50.988Z,21.90
2019-04-07T08:43:53.217Z,21.80
2019-04-07T08:44:50.856Z,21.30
2019-04-07T08:45:50.495Z,20.80
2019-04-07T08:46:50.825Z,21.50
2019-04-07T08:47:51.743Z,21.10
2019-04-07T08:48:53.193Z,21.00
2019-04-07T08:49:50.687Z,21.40
2019-04-07T08:50:50.554Z,19.50
2019-04-07T08:51:50.635Z,19.80
2019-04-07T08:52:51.029Z,19.90
2019-04-07T08:53:50.597Z,19.40
2019-04-07T08:54:52.677Z,20.30
2019-04-07T08:55:54.413Z,20.30
2019-04-07T08:56:50.631Z,20.10
2019-04-07T08:57:50.643Z,18.60
2019-04-07T08:58:51.076Z,18.20
2019-04-07T08:59:51.390Z,18.80
2019-04-07T09:00:52.641Z,19.20
2019-04-07T09:01:53.465Z,17.90
2019-04-07T09:03:01.648Z,17.90
2019-04-07T09:03:50.794Z,18.60
2019-04-07T09:04:52.310Z,19.10
2019-04-07T09:05:51.423Z,17.80
2019-04-07T09:06:50.775Z,18.40
2019-04-07T09:07:50.785Z,18.10
2019-04-07T09:08:51.052Z,17.00
2019-04-07T09:09:51.424Z,16.30
2019-04-07T09:10:50.986Z,17.00
2019-04-07T09:11:53.934Z,16.20
2019-04-07T09:12:51.055Z,17.20
2019-04-07T09:13:50.863Z,16.20
2019-04-07T09:14:51.393Z,16.20
2019-04-07T09:15:50.896Z,16.70
2019-04-07T09:16:54.239Z,17.30
2019-04-07T09:17:50.924Z,16.30
2019-04-07T09:18:55.008Z,16.20
2019-04-07T09:19:53.768Z,16.80
2019-04-07T09:20:51.790Z,15.80
2019-04-07T09:21:52.029Z,14.10
2019-04-07T09:22:53.273Z,15.90
2019-04-07T09:23:51.003Z,13.90
2019-04-07T09:24:51.019Z,15.80
2019-04-07T09:25:51.212Z,14.00
2019-04-07T09:26:51.126Z,14.60
2019-04-07T09:27:51.943Z,13.90
2019-04-07T09:28:53.437Z,13.30
2019-04-07T09:29:51.274Z,13.30
2019-04-07T09:30:51.093Z,14.40
2019-04-07T09:31:51.823Z,15.10
2019-04-07T09:32:51.171Z,14.70
2019-04-07T09:33:51.748Z,15.30
2019-04-07T09:34:53.070Z,14.50
2019-04-07T09:35:52.061Z,14.60
2019-04-07T09:36:51.409Z,15.10
2019-04-07T09:37:53.293Z,15.00
2019-04-07T09:38:51.344Z,15.20
2019-04-07T09:39:58.463Z,14.40
2019-04-07T09:40:51.641Z,13.80
2019-04-07T09:41:54.721Z,13.00
2019-04-07T09:42:51.883Z,12.10
2019-04-07T09:43:51.801Z,11.80
2019-04-07T09:44:51.660Z,12.40
2019-04-07T09:45:51.853Z,12.80
2019-04-07T09:46:51.509Z,13.10
2019-04-07T09:47:51.304Z,12.60
2019-04-07T09:48:52.725Z,11.80
2019-04-07T09:49:56.204Z,11.20
2019-04-07T09:50:52.185Z,10.80
2019-04-07T09:51:51.799Z,8.60
2019-04-07T09:52:51.358Z,7.20
2019-04-07T09:53:52.146Z,6.50
2019-04-07T09:54:53.804Z,6.60
2019-04-07T09:55:51.602Z,6.40
2019-04-07T09:56:51.846Z,6.40
2019-04-07T09:57:51.428Z,6.40
2019-04-07T09:58:51.533Z,7.50
2019-04-07T09:59:53.588Z,6.00
2019-04-07T10:00:55.577Z,6.10
2019-04-07T10:01:51.820Z,6.70
2019-04-07T10:02:51.636Z,6.70
2019-04-07T10:03:51.495Z,6.60
2019-04-07T10:04:51.503Z,7.00
2019-04-07T10:05:51.561Z,7.30
2019-04-07T10:06:51.533Z,7.10
2019-04-07T10:07:51.863Z,6.40
2019-04-07T10:08:52.223Z,6.70
2019-04-07T10:10:03.579Z,6.70
2019-04-07T10:10:51.570Z,7.00
2019-04-07T10:11:51.901Z,7.10
2019-04-07T10:12:51.595Z,7.40
2019-04-07T10:13:51.618Z,6.70
2019-04-07T10:14:51.621Z,6.90
2019-04-07T10:15:51.632Z,6.80
2019-04-07T10:16:51.771Z,6.60
2019-04-07T10:17:51.854Z,7.20
2019-04-07T10:18:52.161Z,7.30
2019-04-07T10:19:51.675Z,8.50
2019-04-07T10:20:51.750Z,8.20
2019-04-07T10:21:51.693Z,8.40
2019-04-07T10:22:51.699Z,7.20
2019-04-07T10:23:51.710Z,7.70
2019-04-07T10:24:51.836Z,8.10
2019-04-07T10:25:51.821Z,8.10
2019-04-07T10:26:52.025Z,7.70
2019-04-07T10:27:51.972Z,7.60
2019-04-07T10:28:51.831Z,8.50
2019-04-07T10:29:52.451Z,8.00
2019-04-07T10:30:51.847Z,8.40
2019-04-07T10:31:51.925Z,8.10
2019-04-07T10:32:52.060Z,8.00
2019-04-07T10:33:52.606Z,7.90
2019-04-07T10:34:51.826Z,7.80
2019-04-07T10:35:52.501Z,8.40
2019-04-07T10:36:51.843Z,8.00
2019-04-07T10:37:52.467Z,8.70
2019-04-07T10:38:51.868Z,8.00
2019-04-07T10:39:52.625Z,9.20
2019-04-07T10:40:51.889Z,7.90
2019-04-07T10:41:51.897Z,7.70
2019-04-07T10:42:54.447Z,8.20
2019-04-07T10:43:52.597Z,7.70
2019-04-07T10:44:52.160Z,7.80
2019-04-07T10:45:51.963Z,7.80
2019-04-07T10:46:51.947Z,7.50
2019-04-07T10:47:52.354Z,7.70
2019-04-07T10:48:51.961Z,7.80
2019-04-07T10:49:59.916Z,7.30
2019-04-07T10:50:51.990Z,7.90
2019-04-07T10:51:52.239Z,8.00
2019-04-07T10:52:52.006Z,7.80
2019-04-07T10:53:52.655Z,7.50
2019-04-07T10:54:52.011Z,8.20
2019-04-07T10:55:52.199Z,8.10
2019-04-07T10:56:52.030Z,7.50
2019-04-07T10:57:52.418Z,7.30
2019-04-07T10:58:52.765Z,7.60
2019-04-07T10:59:52.062Z,7.80
2019-04-07T11:00:52.647Z,7.40
2019-04-07T11:01:52.082Z,7.60
2019-04-07T11:02:55.435Z,7.50
2019-04-07T11:03:53.962Z,7.50
2019-04-07T11:04:52.816Z,7.10
2019-04-07T11:05:52.118Z,6.90
2019-04-07T11:06:52.123Z,7.10
2019-04-07T11:07:52.135Z,7.20
2019-04-07T11:08:52.147Z,7.00
2019-04-07T11:09:52.148Z,7.40
2019-04-07T11:10:52.161Z,7.60
2019-04-07T11:11:52.367Z,7.20
2019-04-07T11:12:52.502Z,8.20
2019-04-07T11:13:52.185Z,7.20
2019-04-07T11:14:52.188Z,7.40
2019-04-07T11:15:52.715Z,6.90
2019-04-07T11:16:52.535Z,7.90
2019-04-07T11:17:52.760Z,8.10
2019-04-07T11:18:52.990Z,7.80
2019-04-07T11:19:52.495Z,7.70
2019-04-07T11:20:52.243Z,8.70
2019-04-07T11:21:52.976Z,7.40
2019-04-07T11:22:52.945Z,7.00
2019-04-07T11:23:52.346Z,7.70
2019-04-07T11:24:52.744Z,8.20
2019-04-07T11:25:52.287Z,7.10
2019-04-07T11:26:52.723Z,7.60
2019-04-07T11:27:52.818Z,7.30
2019-04-07T11:28:52.523Z,7.80
2019-04-07T11:29:52.835Z,7.40
2019-04-07T11:30:52.328Z,7.80
2019-04-07T11:31:53.269Z,8.10
2019-04-07T11:32:52.338Z,8.80
2019-04-07T11:33:52.543Z,7.50
2019-04-07T11:34:53.009Z,9.50
2019-04-07T11:35:53.191Z,8.20
2019-04-07T11:36:52.853Z,9.40
2019-04-07T11:37:52.850Z,10.20
2019-04-07T11:38:52.770Z,7.70
2019-04-07T11:39:52.382Z,8.00
2019-04-07T11:40:52.507Z,8.60
2019-04-07T11:41:52.739Z,9.10
2019-04-07T11:42:52.632Z,8.90
2019-04-07T11:43:53.288Z,7.90
2019-04-07T11:44:53.056Z,7.80
2019-04-07T11:45:59.071Z,7.30
2019-04-07T11:46:53.007Z,8.30
2019-04-07T11:47:52.611Z,9.00
2019-04-07T11:48:52.409Z,8.70
2019-04-07T11:49:52.419Z,11.50
2019-04-07T11:50:52.417Z,10.10
2019-04-07T11:51:52.449Z,11.00
2019-04-07T11:52:52.701Z,10.50
2019-04-07T11:53:52.417Z,12.00
2019-04-07T11:54:52.999Z,12.40
2019-04-07T11:55:53.165Z,12.40
2019-04-07T11:56:52.435Z,11.70
2019-04-07T11:58:07.409Z,10.90
2019-04-07T11:58:53.081Z,12.00
2019-04-07T11:59:52.451Z,11.20
2019-04-07T12:00:52.670Z,11.60
2019-04-07T12:01:53.066Z,11.40
2019-04-07T12:02:53.628Z,10.80
2019-04-07T12:03:53.906Z,10.90
2019-04-07T12:04:53.236Z,12.60
2019-04-07T12:05:52.450Z,11.00
2019-04-07T12:06:52.616Z,11.80
2019-04-07T12:07:55.804Z,11.80
2019-04-07T12:08:52.457Z,11.60
2019-04-07T12:09:52.459Z,11.00
2019-04-07T12:10:58.444Z,12.30
2019-04-07T12:11:52.663Z,10.80
2019-04-07T12:12:52.733Z,11.30
2019-04-07T12:13:52.631Z,11.20
2019-04-07T12:14:54.556Z,11.50
2019-04-07T12:15:55.260Z,11.90
2019-04-07T12:16:53.330Z,11.70
2019-04-07T12:17:52.474Z,11.40
2019-04-07T12:18:53.688Z,12.40
2019-04-07T12:19:55.103Z,10.70
2019-04-07T12:20:52.924Z,11.60
2019-04-07T12:21:52.474Z,12.60
2019-04-07T12:22:52.831Z,10.60
2019-04-07T12:23:54.215Z,12.90
2019-04-07T12:24:54.350Z,10.70
2019-04-07T12:25:52.729Z,10.30
2019-04-07T12:26:52.489Z,9.80
2019-04-07T12:27:52.486Z,10.50
2019-04-07T12:28:52.528Z,10.70
2019-04-07T12:29:52.493Z,11.70
2019-04-07T12:30:52.968Z,11.10
2019-04-07T12:31:53.221Z,11.60
2019-04-07T12:32:52.593Z,10.90
2019-04-07T12:33:52.788Z,10.60
2019-04-07T12:34:52.492Z,14.20
2019-04-07T12:35:55.142Z,11.10
2019-04-07T12:36:53.011Z,9.60
2019-04-07T12:37:53.118Z,9.80
2019-04-07T12:38:52.496Z,10.10
2019-04-07T12:39:53.332Z,9.10
2019-04-07T12:40:54.848Z,9.30
2019-04-07T12:41:54.963Z,9.90
2019-04-07T12:42:52.700Z,8.30
2019-04-07T12:43:52.502Z,8.80
2019-04-07T12:44:52.810Z,8.70
2019-04-07T12:45:52.638Z,9.30
2019-04-07T12:46:52.953Z,9.00
2019-04-07T12:47:52.825Z,8.60
2019-04-07T12:48:53.229Z,10.90
2019-04-07T12:49:53.173Z,9.50
2019-04-07T12:50:52.505Z,9.90
2019-04-07T12:51:55.881Z,9.40
2019-04-07T12:52:52.984Z,10.20
2019-04-07T12:53:53.784Z,9.90
2019-04-07T12:54:52.599Z,10.20
2019-04-07T12:55:56.969Z,10.30
2019-04-07T12:56:53.193Z,8.60
2019-04-07T12:57:52.508Z,9.60